createdAt,value
2022-10-18T00:00:18.011Z,8.01
2022-10-18T00:03:20.839Z,8.06
2022-10-18T00:06:23.396Z,7.96
2022-10-18T00:09:27.524Z,7.95
2022-10-18T00:12:29.922Z,7.90
2022-10-18T00:15:32.380Z,7.95
2022-10-18T00:18:34.762Z,7.92
2022-10-18T00:21:37.241Z,7.90
2022-10-18T00:24:39.687Z,7.85
2022-10-18T00:27:42.231Z,7.80
2022-10-18T00:30:44.634Z,7.76
2022-10-18T00:33:51.711Z,7.94
2022-10-18T00:36:55.094Z,7.87
2022-10-18T00:39:57.451Z,7.85
2022-10-18T00:42:59.877Z,7.82
2022-10-18T00:46:02.208Z,7.73
2022-10-18T00:49:17.184Z,7.70
2022-10-18T00:52:26.496Z,7.63
2022-10-18T00:55:31.678Z,7.69
2022-10-18T00:58:34.923Z,7.72
2022-10-18T01:01:37.579Z,7.67
2022-10-18T01:04:39.956Z,7.71
2022-10-18T01:07:48.506Z,7.60
2022-10-18T01:11:12.686Z,7.62
2022-10-18T01:14:34.288Z,7.59
2022-10-18T01:18:09.382Z,7.53
2022-10-18T01:21:47.258Z,7.52
2022-10-18T01:25:20.106Z,7.57
2022-10-18T01:28:44.093Z,7.49
2022-10-18T01:31:50.418Z,7.49
2022-10-18T01:34:58.101Z,7.51
2022-10-18T01:38:05.107Z,7.57
2022-10-18T01:41:13.226Z,7.58
2022-10-18T01:44:23.455Z,7.62
2022-10-18T01:47:28.187Z,7.60
2022-10-18T01:50:33.075Z,7.64
2022-10-18T01:53:36.189Z,7.61
2022-10-18T01:57:00.300Z,7.54
2022-10-18T02:00:05.413Z,7.57
2022-10-18T02:03:17.828Z,7.54
2022-10-18T02:06:23.030Z,7.57
2022-10-18T02:09:39.552Z,7.59
2022-10-18T02:12:44.470Z,7.56
2022-10-18T02:15:49.993Z,7.53
2022-10-18T02:18:58.930Z,7.49
2022-10-18T02:22:02.072Z,7.48
2022-10-18T02:25:10.271Z,7.43
2022-10-18T02:28:12.819Z,7.39
2022-10-18T02:31:27.360Z,7.32
2022-10-18T02:34:35.833Z,7.30
2022-10-18T02:37:40.074Z,7.26
2022-10-18T02:40:42.453Z,7.18
2022-10-18T02:43:44.885Z,7.30
2022-10-18T02:46:47.665Z,7.23
2022-10-18T02:49:50.020Z,7.27
2022-10-18T02:52:52.479Z,7.28
2022-10-18T02:55:54.840Z,7.38
2022-10-18T02:58:57.406Z,7.34
2022-10-18T03:01:59.721Z,7.28
2022-10-18T03:05:02.085Z,7.27
2022-10-18T03:08:04.782Z,7.27
2022-10-18T03:11:07.245Z,7.30
2022-10-18T03:14:09.621Z,7.32
2022-10-18T03:17:12.086Z,7.25
2022-10-18T03:20:14.605Z,7.31
2022-10-18T03:23:17.090Z,7.20
2022-10-18T03:26:21.495Z,7.19
2022-10-18T03:29:23.874Z,7.07
2022-10-18T03:32:26.458Z,7.02
2022-10-18T03:35:28.847Z,6.99
2022-10-18T03:38:31.618Z,7.50
2022-10-18T03:41:34.003Z,7.96
2022-10-18T03:44:36.382Z,8.07
2022-10-18T03:47:38.817Z,8.28
2022-10-18T03:50:42.875Z,8.28
2022-10-18T03:53:45.483Z,8.33
2022-10-18T03:56:48.127Z,8.27
2022-10-18T03:59:50.708Z,8.18
2022-10-18T04:02:55.826Z,8.34
2022-10-18T04:06:00.653Z,8.20
2022-10-18T04:09:06.510Z,8.22
2022-10-18T04:12:11.874Z,8.29
2022-10-18T04:15:14.377Z,8.34
2022-10-18T04:18:16.768Z,8.20
2022-10-18T04:21:19.313Z,8.17
2022-10-18T04:24:21.856Z,8.23
2022-10-18T04:27:25.545Z,8.00
2022-10-18T04:30:28.209Z,7.87
2022-10-18T04:33:30.596Z,7.83
2022-10-18T04:36:33.013Z,8.01
2022-10-18T04:39:35.474Z,7.84
2022-10-18T04:42:37.897Z,7.93
2022-10-18T04:45:40.212Z,7.97
2022-10-18T04:48:42.650Z,7.81
2022-10-18T04:51:45.143Z,7.88
2022-10-18T04:54:47.518Z,7.72
2022-10-18T04:57:49.929Z,7.70
2022-10-18T05:00:52.632Z,7.45
2022-10-18T05:03:55.200Z,7.34
2022-10-18T05:06:57.932Z,7.15
2022-10-18T05:10:03.922Z,7.32
2022-10-18T05:13:07.262Z,7.70
2022-10-18T05:16:17.852Z,7.75
2022-10-18T05:19:20.422Z,7.80
2022-10-18T05:22:22.975Z,8.25
2022-10-18T05:25:25.420Z,8.53
2022-10-18T05:28:39.707Z,9.21
2022-10-18T05:31:43.115Z,9.07
2022-10-18T05:34:45.583Z,8.98
2022-10-18T05:37:48.702Z,8.83
2022-10-18T05:40:53.248Z,8.53
2022-10-18T05:43:55.761Z,8.07
2022-10-18T05:46:58.494Z,7.91
2022-10-18T05:50:00.974Z,8.26
2022-10-18T05:53:12.167Z,8.42
2022-10-18T05:56:20.952Z,8.58
2022-10-18T05:59:23.495Z,9.34
2022-10-18T06:02:26.014Z,8.99
2022-10-18T06:05:28.492Z,8.87
2022-10-18T06:08:31.410Z,8.72
2022-10-18T06:11:34.031Z,8.87
2022-10-18T06:14:37.631Z,8.93
2022-10-18T06:17:40.073Z,9.40
2022-10-18T06:20:42.713Z,9.59
2022-10-18T06:23:52.266Z,9.77
2022-10-18T06:26:54.824Z,9.60
2022-10-18T06:29:57.488Z,9.39
2022-10-18T06:33:01.070Z,9.16
2022-10-18T06:36:06.118Z,9.15
2022-10-18T06:39:08.607Z,9.13
2022-10-18T06:42:11.036Z,9.20
2022-10-18T06:45:15.840Z,9.57
2022-10-18T06:51:27.217Z,10.15
2022-10-18T06:54:29.756Z,9.97
2022-10-18T06:57:32.120Z,9.95
2022-10-18T07:00:35.911Z,9.75
2022-10-18T07:03:38.530Z,9.58
2022-10-18T07:06:41.052Z,9.72
2022-10-18T07:09:46.027Z,9.68
2022-10-18T07:12:48.471Z,9.95
2022-10-18T07:16:05.992Z,10.02
2022-10-18T07:19:08.527Z,10.04
2022-10-18T07:22:11.030Z,10.20
2022-10-18T07:25:13.668Z,10.29
2022-10-18T07:28:16.129Z,10.34
2022-10-18T07:31:18.757Z,10.20
2022-10-18T07:34:21.258Z,10.24
2022-10-18T07:37:26.660Z,10.38
2022-10-18T07:40:31.891Z,10.49
2022-10-18T07:43:35.581Z,10.62
2022-10-18T07:46:37.969Z,10.83
2022-10-18T07:49:41.092Z,10.97
2022-10-18T07:52:43.553Z,11.04
2022-10-18T07:55:46.243Z,11.40
2022-10-18T07:58:53.691Z,11.58
2022-10-18T08:01:56.284Z,11.74
2022-10-18T08:04:58.938Z,11.76
2022-10-18T08:08:04.305Z,11.81
2022-10-18T08:11:24.469Z,12.02
2022-10-18T08:14:26.959Z,12.04
2022-10-18T08:17:29.419Z,12.05
2022-10-18T08:20:33.333Z,12.11
2022-10-18T08:23:36.944Z,12.31
2022-10-18T08:26:39.393Z,12.38
2022-10-18T08:29:42.034Z,12.45
2022-10-18T08:32:44.452Z,12.49
2022-10-18T08:36:01.288Z,12.61
2022-10-18T08:39:03.954Z,12.90
2022-10-18T08:42:27.986Z,13.14
2022-10-18T08:45:41.900Z,13.59
2022-10-18T08:48:52.169Z,13.41
2022-10-18T08:51:56.047Z,13.42
2022-10-18T08:55:29.311Z,13.79
2022-10-18T08:58:33.363Z,14.45
2022-10-18T09:01:41.954Z,14.42
2022-10-18T09:05:06.803Z,14.50
2022-10-18T09:08:30.541Z,14.37
2022-10-18T09:11:41.809Z,14.59
2022-10-18T09:15:02.581Z,14.59
2022-10-18T09:18:20.263Z,14.61
2022-10-18T09:21:51.845Z,14.52
2022-10-18T09:25:18.132Z,14.62
2022-10-18T09:28:46.282Z,14.92
2022-10-18T09:32:03.720Z,15.13
2022-10-18T09:35:14.914Z,15.17
2022-10-18T09:38:21.886Z,15.31
2022-10-18T09:41:24.306Z,15.45
2022-10-18T09:44:35.985Z,15.42
2022-10-18T09:47:45.448Z,15.59
2022-10-18T09:50:57.105Z,15.67
2022-10-18T09:54:12.986Z,15.76
2022-10-18T09:57:21.778Z,15.59
2022-10-18T10:00:38.785Z,15.54
2022-10-18T10:03:42.357Z,15.34
2022-10-18T10:06:52.913Z,15.24
2022-10-18T10:09:59.934Z,15.39
2022-10-18T10:13:17.836Z,16.05
2022-10-18T10:16:20.316Z,16.17
2022-10-18T10:19:53.657Z,16.46
2022-10-18T10:23:07.489Z,16.55
2022-10-18T10:26:22.773Z,16.71
2022-10-18T10:29:49.073Z,16.74
2022-10-18T10:32:53.093Z,16.88
2022-10-18T10:36:00.889Z,16.90
2022-10-18T10:39:12.515Z,16.98
2022-10-18T10:42:15.020Z,17.24
2022-10-18T10:45:17.728Z,17.42
2022-10-18T10:48:21.158Z,17.33
2022-10-18T10:51:38.738Z,17.41
2022-10-18T10:54:50.407Z,17.51
2022-10-18T10:57:56.368Z,17.54
2022-10-18T11:01:16.530Z,17.42
2022-10-18T11:04:25.673Z,17.77
2022-10-18T11:07:36.231Z,17.78
2022-10-18T11:11:23.293Z,17.76
2022-10-18T11:14:38.788Z,17.75
2022-10-18T11:18:10.814Z,18.11
2022-10-18T11:21:23.151Z,17.87
2022-10-18T11:24:25.839Z,17.84
2022-10-18T11:27:53.889Z,17.96
2022-10-18T11:31:17.123Z,18.08
2022-10-18T11:34:57.010Z,18.19
2022-10-18T11:38:18.090Z,18.47
2022-10-18T11:41:39.956Z,18.49
2022-10-18T11:44:57.767Z,18.43
2022-10-18T11:48:18.807Z,18.58
2022-10-18T11:52:03.260Z,18.96
2022-10-18T11:55:18.926Z,18.77
2022-10-18T11:58:50.758Z,18.80
2022-10-18T12:02:15.311Z,18.96
2022-10-18T12:05:23.743Z,18.92
2022-10-18T12:08:37.113Z,18.85
2022-10-18T12:11:58.539Z,19.07
2022-10-18T12:15:14.407Z,19.15
2022-10-18T12:18:20.343Z,18.92
2022-10-18T12:21:25.887Z,19.07
2022-10-18T12:24:31.931Z,19.32
2022-10-18T12:27:44.026Z,19.11
2022-10-18T12:31:18.851Z,19.15
2022-10-18T12:34:21.368Z,19.50
2022-10-18T12:37:36.134Z,19.45
2022-10-18T12:40:46.062Z,19.05
2022-10-18T12:43:54.786Z,19.10
2022-10-18T12:47:02.776Z,19.32
2022-10-18T12:50:23.045Z,19.29
2022-10-18T12:53:27.953Z,18.99
2022-10-18T12:56:32.874Z,18.99
2022-10-18T12:59:35.242Z,19.08
2022-10-18T13:02:37.908Z,18.96
2022-10-18T13:06:04.177Z,19.03
2022-10-18T13:09:21.005Z,18.83
2022-10-18T13:12:23.422Z,18.85
2022-10-18T13:15:35.449Z,18.76
2022-10-18T13:18:47.709Z,18.81
2022-10-18T13:21:59.589Z,18.69
2022-10-18T13:25:17.269Z,18.52
2022-10-18T13:28:19.683Z,18.53
2022-10-18T13:31:45.114Z,18.54
2022-10-18T13:34:47.742Z,18.38
2022-10-18T13:38:00.007Z,18.29
2022-10-18T13:41:08.732Z,18.34
2022-10-18T13:44:33.242Z,18.30
2022-10-18T13:47:38.077Z,18.33
2022-10-18T13:50:43.064Z,18.24
2022-10-18T13:54:11.196Z,18.16
2022-10-18T13:57:41.875Z,18.10
2022-10-18T14:00:50.507Z,18.12
2022-10-18T14:04:11.160Z,18.00
2022-10-18T14:07:19.165Z,18.06
2022-10-18T14:10:57.407Z,18.08
2022-10-18T14:14:13.515Z,17.96
2022-10-18T14:17:24.981Z,17.89
2022-10-18T14:20:49.517Z,17.72
2022-10-18T14:24:00.391Z,17.80
2022-10-18T14:27:13.212Z,17.79
2022-10-18T14:30:20.208Z,17.72
2022-10-18T14:33:43.713Z,17.71
2022-10-18T14:36:48.458Z,17.64
2022-10-18T14:39:51.069Z,17.46
2022-10-18T14:42:53.486Z,17.45
2022-10-18T14:46:09.410Z,17.24
2022-10-18T14:49:13.171Z,17.06
2022-10-18T14:52:18.529Z,16.99
2022-10-18T14:55:26.941Z,17.00
2022-10-18T14:58:30.217Z,16.90
2022-10-18T15:01:33.123Z,16.74
2022-10-18T15:04:35.696Z,16.41
2022-10-18T15:07:38.410Z,16.41
2022-10-18T15:10:41.654Z,16.24
2022-10-18T15:13:53.482Z,16.00
2022-10-18T15:17:03.447Z,15.84
2022-10-18T15:20:27.282Z,15.63
2022-10-18T15:23:31.331Z,15.70
2022-10-18T15:26:33.798Z,15.52
2022-10-18T15:29:37.752Z,15.34
2022-10-18T15:32:48.580Z,15.20
2022-10-18T15:35:53.065Z,15.10
2022-10-18T15:39:18.394Z,15.18
2022-10-18T15:42:38.798Z,14.88
2022-10-18T15:49:18.124Z,14.71
2022-10-18T15:52:39.310Z,14.58
2022-10-18T15:55:46.746Z,14.41
2022-10-18T15:58:51.281Z,14.22
2022-10-18T16:01:54.337Z,14.08
2022-10-18T16:05:01.805Z,13.94
2022-10-18T16:08:04.356Z,13.71
2022-10-18T16:11:08.204Z,13.53
2022-10-18T16:14:10.827Z,13.48
2022-10-18T16:17:16.921Z,13.44
2022-10-18T16:20:22.278Z,13.41
2022-10-18T16:23:28.700Z,13.24
2022-10-18T16:26:32.069Z,13.08
2022-10-18T16:29:35.088Z,13.01
2022-10-18T16:32:37.486Z,12.84
2022-10-18T16:35:39.853Z,12.79
2022-10-18T16:38:42.980Z,12.66
2022-10-18T16:41:46.516Z,12.71
2022-10-18T16:44:49.116Z,12.89
2022-10-18T16:47:51.543Z,12.79
2022-10-18T16:50:55.946Z,12.74
2022-10-18T16:53:58.349Z,12.70
2022-10-18T16:57:00.717Z,12.57
2022-10-18T17:00:04.268Z,12.70
2022-10-18T17:03:09.495Z,12.64
2022-10-18T17:06:21.026Z,12.51
2022-10-18T17:09:23.351Z,12.35
2022-10-18T17:12:25.816Z,12.28
2022-10-18T17:15:31.573Z,12.18
2022-10-18T17:18:37.214Z,12.15
2022-10-18T17:21:39.790Z,12.13
2022-10-18T17:24:42.157Z,12.36
2022-10-18T17:27:45.599Z,12.15
2022-10-18T17:30:54.446Z,12.04
2022-10-18T17:33:58.628Z,11.94
2022-10-18T17:37:01.180Z,12.32
2022-10-18T17:40:06.743Z,12.34
2022-10-18T17:43:10.325Z,12.11
2022-10-18T17:46:14.221Z,11.85
2022-10-18T17:49:16.980Z,11.63
2022-10-18T17:52:19.351Z,11.62
2022-10-18T17:55:21.741Z,11.64
2022-10-18T17:58:24.227Z,11.49
2022-10-18T18:01:26.823Z,11.33
2022-10-18T18:04:29.396Z,11.23
2022-10-18T18:07:31.880Z,11.20
2022-10-18T18:10:35.361Z,11.17
2022-10-18T18:13:37.910Z,11.18
2022-10-18T18:16:43.134Z,11.84
2022-10-18T18:19:45.631Z,11.81
2022-10-18T18:22:48.048Z,11.65
2022-10-18T18:25:57.490Z,11.36
2022-10-18T18:32:03.652Z,10.97
2022-10-18T18:35:06.407Z,10.82
2022-10-18T18:38:09.161Z,10.73
2022-10-18T18:41:17.580Z,10.68
2022-10-18T18:44:22.469Z,10.62
2022-10-18T18:47:24.832Z,10.59
2022-10-18T18:50:28.249Z,10.55
2022-10-18T18:53:31.180Z,10.41
2022-10-18T18:56:34.104Z,10.27
2022-10-18T18:59:36.753Z,10.16
2022-10-18T19:02:39.172Z,10.23
2022-10-18T19:05:41.575Z,10.40
2022-10-18T19:08:45.022Z,10.59
2022-10-18T19:11:49.752Z,10.61
2022-10-18T19:14:52.072Z,10.64
2022-10-18T19:17:56.246Z,10.49
2022-10-18T19:20:58.643Z,10.32
2022-10-18T19:24:01.882Z,10.19
2022-10-18T19:27:12.299Z,10.07
2022-10-18T19:30:14.874Z,10.07
2022-10-18T19:33:35.510Z,9.98
2022-10-18T19:36:47.161Z,9.77
2022-10-18T19:39:49.736Z,9.64
2022-10-18T19:42:52.227Z,9.57
2022-10-18T19:45:54.703Z,9.56
2022-10-18T19:48:57.351Z,9.48
2022-10-18T19:51:59.828Z,9.32
2022-10-18T19:55:02.170Z,9.30
2022-10-18T19:58:04.623Z,9.48
2022-10-18T20:01:07.090Z,9.63
2022-10-18T20:04:10.555Z,9.60
2022-10-18T20:07:12.951Z,9.66
2022-10-18T20:10:17.011Z,9.45
2022-10-18T20:13:19.884Z,9.22
2022-10-18T20:16:28.088Z,9.09
2022-10-18T20:19:31.552Z,8.96
2022-10-18T20:22:34.249Z,8.93
2022-10-18T20:25:36.814Z,8.82
2022-10-18T20:28:39.941Z,8.75
2022-10-18T20:31:42.372Z,8.78
2022-10-18T20:34:44.725Z,8.73
2022-10-18T20:37:47.420Z,8.73
2022-10-18T20:40:52.285Z,8.63
2022-10-18T20:43:57.072Z,8.63
2022-10-18T20:46:59.561Z,8.71
2022-10-18T20:50:01.953Z,8.71
2022-10-18T20:53:04.263Z,8.50
2022-10-18T20:56:09.688Z,8.59
2022-10-18T20:59:12.252Z,8.48
2022-10-18T21:02:14.631Z,8.51
2022-10-18T21:05:18.335Z,8.51
2022-10-18T21:08:20.708Z,8.52
2022-10-18T21:11:24.017Z,8.46
2022-10-18T21:14:29.150Z,8.37
2022-10-18T21:17:31.619Z,8.26
2022-10-18T21:20:41.440Z,8.46
2022-10-18T21:23:44.618Z,8.45
2022-10-18T21:26:47.936Z,8.44
2022-10-18T21:29:50.277Z,8.22
2022-10-18T21:32:52.715Z,8.15
2022-10-18T21:35:55.039Z,8.02
2022-10-18T21:38:57.588Z,7.93
2022-10-18T21:41:59.931Z,7.85
2022-10-18T21:45:02.269Z,7.69
2022-10-18T21:48:04.828Z,7.63
2022-10-18T21:51:08.536Z,7.63
2022-10-18T21:54:13.635Z,7.70
2022-10-18T21:57:15.990Z,7.53
2022-10-18T22:00:19.327Z,7.49
2022-10-18T22:03:23.297Z,7.43
2022-10-18T22:06:29.176Z,7.43
2022-10-18T22:09:31.802Z,7.53
2022-10-18T22:12:34.235Z,7.46
2022-10-18T22:18:46.042Z,7.45
2022-10-18T22:21:48.633Z,7.49
2022-10-18T22:24:50.946Z,7.48
2022-10-18T22:27:53.297Z,7.44
2022-10-18T22:30:55.602Z,7.50
2022-10-18T22:34:00.565Z,7.43
2022-10-18T22:37:02.997Z,7.31
2022-10-18T22:40:05.939Z,7.34
2022-10-18T22:43:08.341Z,7.32
2022-10-18T22:46:12.658Z,7.44
2022-10-18T22:49:15.216Z,7.54
2022-10-18T22:52:17.554Z,7.42
2022-10-18T22:55:20.004Z,7.47
2022-10-18T22:58:22.778Z,7.48
2022-10-18T23:01:25.426Z,7.53
2022-10-18T23:04:27.872Z,7.59
2022-10-18T23:07:30.257Z,7.70
2022-10-18T23:10:38.418Z,7.70
2022-10-18T23:13:40.794Z,7.84
2022-10-18T23:16:43.330Z,7.84
2022-10-18T23:19:46.387Z,7.74
2022-10-18T23:22:48.841Z,7.62
2022-10-18T23:25:54.186Z,7.75
2022-10-18T23:28:57.316Z,7.71
2022-10-18T23:31:59.847Z,7.78
2022-10-18T23:35:02.188Z,7.78
2022-10-18T23:38:04.543Z,7.89
2022-10-18T23:41:10.262Z,8.14
2022-10-18T23:44:12.723Z,8.14
2022-10-18T23:47:15.714Z,8.15
2022-10-18T23:50:20.536Z,8.09
2022-10-18T23:53:23.378Z,8.10
2022-10-18T23:56:25.842Z,8.15
2022-10-18T23:59:28.246Z,8.13
